createdAt,value
2023-02-14T00:01:30.608Z,102348.98
2023-02-14T00:04:59.997Z,102351.63
2023-02-14T00:08:27.927Z,102351.67
2023-02-14T00:11:54.944Z,102354.82
2023-02-14T00:15:25.667Z,102353.08
2023-02-14T00:19:04.833Z,102355.12
2023-02-14T00:22:31.776Z,102357.32
2023-02-14T00:26:01.452Z,102353.36
2023-02-14T00:29:29.972Z,102352.30
2023-02-14T00:38:03.282Z,102357.63
2023-02-14T00:41:38.671Z,102356.77
2023-02-14T00:45:06.281Z,102352.66
2023-02-14T00:48:35.304Z,102355.77
2023-02-14T00:52:01.808Z,102359.08
2023-02-14T00:55:31.672Z,102364.98
2023-02-14T00:58:59.528Z,102364.70
2023-02-14T01:02:26.585Z,102361.67
2023-02-14T01:05:53.749Z,102362.41
2023-02-14T01:09:21.668Z,102365.91
2023-02-14T01:12:49.795Z,102364.90
2023-02-14T01:16:19.550Z,102351.37
2023-02-14T01:19:48.865Z,102344.52
2023-02-14T01:23:19.759Z,102348.16
2023-02-14T01:27:09.092Z,102345.07
2023-02-14T01:30:38.132Z,102344.52
2023-02-14T01:34:07.268Z,102347.92
2023-02-14T01:37:34.301Z,102346.03
2023-02-14T01:41:02.707Z,102344.81
2023-02-14T01:44:59.393Z,102357.48
2023-02-14T01:48:28.393Z,102369.13
2023-02-14T01:51:58.772Z,102365.89
2023-02-14T01:55:29.457Z,102364.72
2023-02-14T01:59:00.794Z,102364.77
2023-02-14T02:02:27.613Z,102364.33
2023-02-14T02:05:59.505Z,102361.65
2023-02-14T02:09:32.545Z,102365.70
2023-02-14T02:13:01.488Z,102363.21
2023-02-14T02:17:04.621Z,102370.16
2023-02-14T02:21:05.687Z,102368.17
2023-02-14T02:24:40.067Z,102365.30
2023-02-14T02:28:51.633Z,102364.28
2023-02-14T02:32:58.933Z,102365.01
2023-02-14T02:37:00.863Z,102366.16
2023-02-14T02:40:41.514Z,102370.77
2023-02-14T02:44:17.783Z,102373.48
2023-02-14T02:47:53.135Z,102373.63
2023-02-14T02:51:49.050Z,102370.36
2023-02-14T02:55:28.039Z,102373.08
2023-02-14T02:58:59.686Z,102373.41
2023-02-14T03:02:31.477Z,102380.95
2023-02-14T03:06:00.625Z,102384.00
2023-02-14T03:09:55.404Z,102385.92
2023-02-14T03:13:52.572Z,102388.52
2023-02-14T03:17:26.509Z,102383.72
2023-02-14T03:21:04.325Z,102382.41
2023-02-14T03:24:41.274Z,102385.88
2023-02-14T03:28:20.361Z,102389.02
2023-02-14T03:31:59.574Z,102391.83
2023-02-14T03:35:32.587Z,102393.23
2023-02-14T03:39:05.261Z,102398.92
2023-02-14T03:42:39.425Z,102400.64
2023-02-14T03:46:12.034Z,102396.44
2023-02-14T03:49:45.175Z,102396.72
2023-02-14T03:53:15.751Z,102391.36
2023-02-14T03:56:48.061Z,102394.45
2023-02-14T04:00:18.497Z,102395.13
2023-02-14T04:03:48.474Z,102393.00
2023-02-14T04:07:17.166Z,102392.13
2023-02-14T04:10:44.371Z,102394.70
2023-02-14T04:14:10.911Z,102395.92
2023-02-14T04:17:55.649Z,102391.35
2023-02-14T04:21:23.863Z,102388.46
2023-02-14T04:24:51.656Z,102383.86
2023-02-14T04:28:20.148Z,102388.86
2023-02-14T04:31:47.916Z,102385.25
2023-02-14T04:35:15.390Z,102386.52
2023-02-14T04:38:42.781Z,102383.48
2023-02-14T04:42:09.905Z,102391.59
2023-02-14T04:45:37.578Z,102392.42
2023-02-14T04:49:04.012Z,102390.02
2023-02-14T04:52:30.629Z,102399.66
2023-02-14T04:55:56.999Z,102404.70
2023-02-14T04:59:25.072Z,102400.34
2023-02-14T05:02:52.644Z,102399.30
2023-02-14T05:06:19.862Z,102399.62
2023-02-14T05:09:46.414Z,102402.49
2023-02-14T05:13:13.091Z,102396.98
2023-02-14T05:16:41.914Z,102394.92
2023-02-14T05:20:11.839Z,102397.98
2023-02-14T05:23:39.134Z,102398.15
2023-02-14T05:27:06.376Z,102397.69
2023-02-14T05:30:33.775Z,102392.36
2023-02-14T05:34:00.548Z,102386.54
2023-02-14T05:37:28.056Z,102398.05
2023-02-14T05:40:54.500Z,102403.79
2023-02-14T05:44:21.360Z,102398.34
2023-02-14T05:47:48.798Z,102404.27
2023-02-14T05:51:16.053Z,102411.02
2023-02-14T05:54:43.222Z,102405.66
2023-02-14T05:58:10.146Z,102409.05
2023-02-14T06:01:36.893Z,102413.48
2023-02-14T06:05:04.043Z,102414.50
2023-02-14T06:08:31.050Z,102416.89
2023-02-14T06:11:57.546Z,102419.98
2023-02-14T06:15:25.210Z,102422.02
2023-02-14T06:18:51.905Z,102425.63
2023-02-14T06:22:19.249Z,102436.45
2023-02-14T06:25:45.979Z,102434.03
2023-02-14T06:29:13.232Z,102433.71
2023-02-14T06:32:40.622Z,102427.90
2023-02-14T06:36:08.805Z,102436.55
2023-02-14T06:39:35.877Z,102438.65
2023-02-14T06:43:03.147Z,102439.05
2023-02-14T06:46:30.102Z,102446.98
2023-02-14T06:49:57.148Z,102447.54
2023-02-14T06:53:23.691Z,102447.36
2023-02-14T06:56:50.110Z,102451.70
2023-02-14T07:00:18.120Z,102447.61
2023-02-14T07:03:45.173Z,102445.55
2023-02-14T07:07:11.664Z,102442.80
2023-02-14T07:10:38.761Z,102438.83
2023-02-14T07:14:05.522Z,102449.14
2023-02-14T07:17:32.008Z,102456.15
2023-02-14T07:20:58.985Z,102452.83
2023-02-14T07:24:25.981Z,102460.73
2023-02-14T07:27:52.612Z,102464.69
2023-02-14T07:31:20.131Z,102468.98
2023-02-14T07:34:48.072Z,102472.13
2023-02-14T07:38:14.748Z,102467.16
2023-02-14T07:41:41.552Z,102473.58
2023-02-14T07:45:21.263Z,102475.35
2023-02-14T07:48:49.217Z,102475.55
2023-02-14T07:52:15.968Z,102477.14
2023-02-14T07:55:43.186Z,102484.21
2023-02-14T07:59:09.968Z,102480.30
2023-02-14T08:02:37.151Z,102478.58
2023-02-14T08:06:04.600Z,102477.73
2023-02-14T08:09:31.750Z,102480.13
2023-02-14T08:13:04.337Z,102482.19
2023-02-14T08:16:35.901Z,102489.55
2023-02-14T08:20:02.832Z,102490.23
2023-02-14T08:23:31.041Z,102485.79
2023-02-14T08:26:58.657Z,102483.05
2023-02-14T08:30:25.975Z,102490.64
2023-02-14T08:33:52.599Z,102492.59
2023-02-14T08:37:20.352Z,102491.25
2023-02-14T08:40:48.287Z,102498.02
2023-02-14T08:44:16.949Z,102503.73
2023-02-14T08:47:43.837Z,102502.04
2023-02-14T08:51:12.361Z,102499.45
2023-02-14T08:54:39.547Z,102501.17
2023-02-14T08:58:07.605Z,102511.04
2023-02-14T09:01:39.254Z,102503.80
2023-02-14T09:05:08.303Z,102499.71
2023-02-14T09:08:36.195Z,102510.21
2023-02-14T09:12:07.320Z,102514.70
2023-02-14T09:15:34.978Z,102510.91
2023-02-14T09:19:03.037Z,102522.28
2023-02-14T09:22:29.497Z,102528.30
2023-02-14T09:26:03.819Z,102524.71
2023-02-14T09:29:31.397Z,102529.55
2023-02-14T09:32:58.563Z,102527.65
2023-02-14T09:36:42.942Z,102528.17
2023-02-14T09:40:14.780Z,102541.30
2023-02-14T09:43:52.663Z,102538.90
2023-02-14T09:47:36.817Z,102547.55
2023-02-14T09:51:07.171Z,102543.59
2023-02-14T09:54:37.264Z,102538.27
2023-02-14T09:58:11.679Z,102542.42
2023-02-14T10:01:44.555Z,102551.06
2023-02-14T10:05:20.754Z,102544.86
2023-02-14T10:09:00.548Z,102538.83
2023-02-14T10:12:35.699Z,102536.77
2023-02-14T10:16:09.810Z,102545.42
2023-02-14T10:19:42.156Z,102534.73
2023-02-14T10:23:24.398Z,102527.15
2023-02-14T10:26:54.394Z,102537.86
2023-02-14T10:30:24.809Z,102534.79
2023-02-14T10:34:07.463Z,102525.16
2023-02-14T10:37:53.477Z,102530.02
2023-02-14T10:41:34.156Z,102530.02
2023-02-14T10:45:16.904Z,102531.25
2023-02-14T10:48:56.889Z,102526.95
2023-02-14T10:52:32.608Z,102526.61
2023-02-14T10:56:14.971Z,102525.39
2023-02-14T10:59:52.796Z,102517.14
2023-02-14T11:03:22.556Z,102521.98
2023-02-14T11:06:54.255Z,102519.21
2023-02-14T11:10:27.100Z,102513.69
2023-02-14T11:13:56.053Z,102520.57
2023-02-14T11:17:32.684Z,102515.08
2023-02-14T11:21:07.674Z,102509.89
2023-02-14T11:24:38.772Z,102514.03
2023-02-14T11:28:09.717Z,102512.48
2023-02-14T11:31:39.220Z,102507.27
2023-02-14T11:35:09.150Z,102502.28
2023-02-14T11:38:38.882Z,102507.64
2023-02-14T11:42:07.667Z,102508.48
2023-02-14T11:45:37.307Z,102500.03
2023-02-14T11:49:07.264Z,102500.71
2023-02-14T11:52:35.243Z,102507.12
2023-02-14T11:56:28.506Z,102503.84
2023-02-14T12:00:07.365Z,102500.73
2023-02-14T12:03:48.602Z,102493.83
2023-02-14T12:07:32.582Z,102498.33
2023-02-14T12:11:19.369Z,102502.45
2023-02-14T12:14:51.983Z,102505.56
2023-02-14T12:18:39.287Z,102497.95
2023-02-14T12:22:08.079Z,102489.15
2023-02-14T12:25:50.157Z,102484.98
2023-02-14T12:29:23.527Z,102488.77
2023-02-14T12:32:53.334Z,102486.88
2023-02-14T12:36:40.503Z,102483.94
2023-02-14T12:40:18.667Z,102474.96
2023-02-14T12:43:53.186Z,102478.23
2023-02-14T12:47:30.006Z,102474.44
2023-02-14T12:51:03.362Z,102471.16
2023-02-14T12:54:50.940Z,102467.51
2023-02-14T12:58:29.917Z,102466.79
2023-02-14T13:02:30.473Z,102465.23
2023-02-14T13:06:03.698Z,102465.90
2023-02-14T13:09:35.851Z,102456.06
2023-02-14T13:13:09.237Z,102454.14
2023-02-14T13:16:42.846Z,102449.16
2023-02-14T13:20:36.256Z,102449.65
2023-02-14T13:24:18.669Z,102452.73
2023-02-14T13:27:45.887Z,102450.59
2023-02-14T13:31:15.523Z,102445.00
2023-02-14T13:34:55.662Z,102447.34
2023-02-14T13:38:23.368Z,102441.67
2023-02-14T13:41:53.433Z,102434.70
2023-02-14T14:07:10.049Z,102426.67
2023-02-14T14:10:44.917Z,102420.42
2023-02-14T14:14:42.015Z,102418.38
2023-02-14T14:18:37.912Z,102414.11
2023-02-14T14:22:04.119Z,102411.48
2023-02-14T14:25:36.902Z,102413.75
2023-02-14T14:29:00.329Z,102410.21
2023-02-14T14:32:30.688Z,102407.05
2023-02-14T14:35:55.325Z,102406.86
2023-02-14T14:39:29.629Z,102403.25
2023-02-14T14:42:54.607Z,102404.75
2023-02-14T14:46:18.757Z,102402.91
2023-02-14T14:49:42.070Z,102405.55
2023-02-14T14:53:08.956Z,102405.05
2023-02-14T14:56:35.417Z,102407.25
2023-02-14T15:00:19.183Z,102406.11
2023-02-14T15:03:42.788Z,102403.23
2023-02-14T15:07:23.500Z,102401.23
2023-02-14T15:10:52.364Z,102398.93
2023-02-14T15:14:21.160Z,102399.55
2023-02-14T15:17:48.214Z,102394.29
2023-02-14T15:21:13.397Z,102394.20
2023-02-14T15:24:39.048Z,102393.56
2023-02-14T15:28:03.359Z,102391.41
2023-02-14T15:31:31.518Z,102394.66
2023-02-14T15:34:55.760Z,102393.00
2023-02-14T15:38:20.331Z,102394.42
2023-02-14T15:41:45.722Z,102397.27
2023-02-14T15:45:29.592Z,102396.14
2023-02-14T15:48:53.794Z,102395.89
2023-02-14T15:52:17.919Z,102393.39
2023-02-14T15:55:43.134Z,102392.79
2023-02-14T15:59:17.147Z,102390.77
2023-02-14T16:02:41.753Z,102387.39
2023-02-14T16:06:06.049Z,102393.15
2023-02-14T16:09:33.799Z,102394.06
2023-02-14T16:13:03.717Z,102398.23
2023-02-14T16:16:49.571Z,102398.59
2023-02-14T16:20:44.401Z,102397.58
2023-02-14T16:24:20.520Z,102399.65
2023-02-14T16:27:48.435Z,102401.19
2023-02-14T16:31:17.208Z,102401.86
2023-02-14T16:34:43.104Z,102400.95
2023-02-14T16:38:16.349Z,102406.58
2023-02-14T16:41:44.654Z,102409.98
2023-02-14T16:45:14.271Z,102409.10
2023-02-14T16:48:39.798Z,102409.23
2023-02-14T16:52:03.332Z,102406.63
2023-02-14T16:55:29.500Z,102409.02
2023-02-14T16:58:53.589Z,102408.66
2023-02-14T17:02:18.651Z,102409.13
2023-02-14T17:05:44.318Z,102409.08
2023-02-14T17:09:13.036Z,102407.65
2023-02-14T17:12:41.450Z,102408.41
2023-02-14T17:16:07.005Z,102413.86
2023-02-14T17:19:32.647Z,102417.23
2023-02-14T17:22:59.233Z,102413.73
2023-02-14T17:26:24.295Z,102415.20
2023-02-14T17:29:51.092Z,102420.59
2023-02-14T17:33:16.598Z,102417.05
2023-02-14T17:36:41.407Z,102422.09
2023-02-14T17:40:05.776Z,102421.97
2023-02-14T17:43:30.448Z,102419.79
2023-02-14T17:46:54.733Z,102417.62
2023-02-14T17:50:19.787Z,102422.19
2023-02-14T17:53:47.632Z,102421.49
2023-02-14T17:57:12.562Z,102419.59
2023-02-14T18:00:36.011Z,102423.65
2023-02-14T18:04:00.160Z,102421.66
2023-02-14T18:07:23.954Z,102423.16
2023-02-14T18:10:47.727Z,102419.83
2023-02-14T18:14:10.482Z,102417.02
2023-02-14T18:17:35.182Z,102412.05
2023-02-14T18:21:01.206Z,102406.77
2023-02-14T18:24:26.261Z,102411.63
2023-02-14T18:27:49.720Z,102408.21
2023-02-14T18:31:14.817Z,102411.66
2023-02-14T18:34:38.500Z,102410.64
2023-02-14T18:38:05.548Z,102411.02
2023-02-14T18:41:32.279Z,102411.59
2023-02-14T18:44:56.299Z,102412.83
2023-02-14T18:48:19.630Z,102402.49
2023-02-14T18:51:44.028Z,102412.11
2023-02-14T18:55:09.335Z,102404.66
2023-02-14T18:58:33.494Z,102402.03
2023-02-14T19:01:57.061Z,102405.23
2023-02-14T19:05:21.178Z,102401.09
2023-02-14T19:08:46.806Z,102398.52
2023-02-14T19:12:17.248Z,102402.65
2023-02-14T19:15:44.668Z,102399.60
2023-02-14T19:19:10.035Z,102401.16
2023-02-14T19:22:38.695Z,102403.87
2023-02-14T19:26:10.523Z,102408.16
2023-02-14T19:29:34.450Z,102405.68
2023-02-14T19:33:00.976Z,102408.34
2023-02-14T19:36:26.017Z,102404.34
2023-02-14T19:39:53.169Z,102400.64
2023-02-14T19:43:16.961Z,102401.89
2023-02-14T19:46:40.541Z,102400.36
2023-02-14T19:50:07.721Z,102405.55
2023-02-14T19:53:34.880Z,102402.64
2023-02-14T19:56:58.051Z,102398.96
2023-02-14T20:00:24.973Z,102399.40
2023-02-14T20:03:56.967Z,102398.11
2023-02-14T20:07:21.633Z,102395.45
2023-02-14T20:10:49.192Z,102392.80
2023-02-14T20:14:17.078Z,102387.41
2023-02-14T20:17:44.255Z,102382.60
2023-02-14T20:21:17.432Z,102382.27
2023-02-14T20:24:44.803Z,102377.85
2023-02-14T20:28:08.763Z,102377.20
2023-02-14T20:31:34.128Z,102370.86
2023-02-14T20:34:58.916Z,102379.36
2023-02-14T20:38:22.556Z,102379.13
2023-02-14T20:41:49.403Z,102374.72
2023-02-14T20:45:13.793Z,102375.95
2023-02-14T20:48:37.577Z,102375.57
2023-02-14T20:52:01.391Z,102366.99
2023-02-14T20:55:27.007Z,102363.69
2023-02-14T20:58:50.976Z,102363.23
2023-02-14T21:02:15.557Z,102366.89
2023-02-14T21:05:40.660Z,102371.88
2023-02-14T21:09:04.622Z,102370.55
2023-02-14T21:12:28.551Z,102368.01
2023-02-14T21:15:55.738Z,102364.25
2023-02-14T21:19:19.887Z,102371.30
2023-02-14T21:22:59.147Z,102371.40
2023-02-14T21:26:24.320Z,102370.09
2023-02-14T21:29:49.550Z,102374.48
2023-02-14T21:33:15.678Z,102372.04
2023-02-14T21:36:40.311Z,102373.23
2023-02-14T21:40:08.739Z,102368.02
2023-02-14T21:43:35.563Z,102365.19
2023-02-14T21:46:59.734Z,102363.09
2023-02-14T21:50:32.992Z,102363.56
2023-02-14T21:53:59.340Z,102359.71
2023-02-14T21:57:23.089Z,102359.98
2023-02-14T22:00:56.547Z,102359.48
2023-02-14T22:04:19.027Z,102360.48
2023-02-14T22:07:42.548Z,102361.73
2023-02-14T22:11:10.735Z,102361.95
2023-02-14T22:14:33.998Z,102358.24
2023-02-14T22:17:57.834Z,102358.48
2023-02-14T22:21:24.123Z,102359.92
2023-02-14T22:24:47.480Z,102366.49
2023-02-14T22:28:11.875Z,102366.56
2023-02-14T22:31:37.618Z,102367.17
2023-02-14T22:35:01.532Z,102369.42
2023-02-14T22:38:26.653Z,102369.02
2023-02-14T22:41:52.344Z,102372.17
2023-02-14T22:45:17.112Z,102369.89
2023-02-14T22:48:41.566Z,102370.42
2023-02-14T22:52:07.753Z,102370.10
2023-02-14T22:55:31.408Z,102363.52
2023-02-14T22:58:57.143Z,102362.40
2023-02-14T23:02:20.619Z,102358.25
2023-02-14T23:05:47.355Z,102352.84
2023-02-14T23:09:13.441Z,102348.52
2023-02-14T23:12:56.266Z,102347.42
2023-02-14T23:16:40.411Z,102346.16
2023-02-14T23:20:23.017Z,102342.09
2023-02-14T23:23:47.951Z,102335.76
2023-02-14T23:27:12.179Z,102330.35
2023-02-14T23:30:36.001Z,102329.27
2023-02-14T23:33:59.880Z,102330.89
2023-02-14T23:37:25.037Z,102329.75
2023-02-14T23:41:11.620Z,102326.86
2023-02-14T23:44:37.361Z,102320.88
2023-02-14T23:48:04.697Z,102317.61
2023-02-14T23:51:28.224Z,102311.80
2023-02-14T23:54:51.976Z,102315.10
2023-02-14T23:58:15.840Z,102316.38
